Antigo, WI (54409)

7:32 PM CDT on August 30, 2015 (GMT -0500)
Antigo, Wisconsin | | Change Station
CLOSE
Current Station
Personal Weather Station
Location: Antigo, WI
Elevation: 1521 ft
Nearby Weather Stations

Elev 1521 ft 45.14 °N, 89.16 °W | Updated 6 minutes ago

Clear
Clear
71.8 °F
Feels Like 72 °F
N
0.0
Wind Variable Wind from SE
Gusts 2.0 mph

Today
High -- | Low -- °F
--% Chance of Precip.
Yesterday
High -- | Low -- °F
Precip. -- in
6:15 AM 7:37 PM
Full, 98% visible
Pressure 29.99 in
Visibility 10.0 miles
Clouds Clear
Heat Index 72 °F
Dew Point 66 °F
Humidity 81%
Rainfall 0.01 in
Snow Depth Not available.
UV 0 out of 12
Pollen 10.00 out of 12
Air Quality Not available.
Flu Activity Not available.
METAR KAIG 310010Z AUTO 20004KT 10SM CLR 20/18 A2999 RMK AO2 T02040175
Pressure 29.99 in
Visibility 10.0 miles
Clouds Clear
Heat Index 72 °F
Dew Point 66 °F
Humidity 81%
Rainfall 0.01 in
Snow Depth Not available.
UV 0 out of 12
Pollen 10.00 out of 12
Air Quality Not available.
Flu Activity Not available.
METAR KAIG 310010Z AUTO 20004KT 10SM CLR 20/18 A2999 RMK AO2 T02040175

10-Day Weather Forecast

×

Almanac

Astronomy

Aug. 30, 2015 Rise Set
Actual Time
Civil Twilight
Nautical Twilight
Astronomical Twilight
Moon
Length of Visible Light
Length of Day
Tomorrow will be .
, % of the Moon is Illuminated

Today's Extremes

State Highs State Lows

Community

WunderPhotos

Upload Photos

1,851,111 photos uploaded!

WunderBlogs® & News

Nearby

Air Quality

  Air Quality AQ Index Pollutant
Not available.

Snow Depth

Station Depth Elevation

Earthquake Activity

City Distance Mag. Time & Date
Minimum magnitude displayed is 2.5.

Coastal Water Temperatures

Place Temperature

Stations

Nearby Weather Stations

Station Location Temp. Windchill Dew Point Humidity Wind Precip. Elev Updated Type